sensor_id;sensor_type;location;lat;lon;timestamp;P1;durP1;ratioP1;P2;durP2;ratioP2
30249;SDS011;17064;47.974;13.826;2024-02-21T00:01:57;4.55;;;0.85;;
30249;SDS011;17064;47.974;13.826;2024-02-21T00:07:16;6.68;;;1.10;;
30249;SDS011;17064;47.974;13.826;2024-02-21T00:12:35;4.50;;;1.10;;
30249;SDS011;17064;47.974;13.826;2024-02-21T00:17:54;3.95;;;1.10;;
30249;SDS011;17064;47.974;13.826;2024-02-21T00:23:13;3.55;;;0.65;;
30249;SDS011;17064;47.974;13.826;2024-02-21T00:28:32;1.98;;;0.52;;
30249;SDS011;17064;47.974;13.826;2024-02-21T00:33:52;5.88;;;0.90;;
30249;SDS011;17064;47.974;13.826;2024-02-21T00:39:11;5.18;;;1.02;;
30249;SDS011;17064;47.974;13.826;2024-02-21T00:44:31;3.10;;;0.75;;
30249;SDS011;17064;47.974;13.826;2024-02-21T00:49:50;1.25;;;0.50;;
30249;SDS011;17064;47.974;13.826;2024-02-21T00:55:10;2.97;;;0.60;;
30249;SDS011;17064;47.974;13.826;2024-02-21T01:00:29;3.05;;;0.60;;
30249;SDS011;17064;47.974;13.826;2024-02-21T01:05:49;2.45;;;0.85;;
30249;SDS011;17064;47.974;13.826;2024-02-21T01:11:08;3.67;;;0.70;;
30249;SDS011;17064;47.974;13.826;2024-02-21T01:16:27;6.25;;;0.82;;
30249;SDS011;17064;47.974;13.826;2024-02-21T01:21:46;6.07;;;1.10;;
30249;SDS011;17064;47.974;13.826;2024-02-21T01:27:05;1.83;;;0.55;;
30249;SDS011;17064;47.974;13.826;2024-02-21T01:32:24;5.40;;;0.52;;
30249;SDS011;17064;47.974;13.826;2024-02-21T01:37:44;3.53;;;0.75;;
30249;SDS011;17064;47.974;13.826;2024-02-21T01:43:03;3.13;;;0.60;;
30249;SDS011;17064;47.974;13.826;2024-02-21T01:48:33;3.72;;;0.77;;
30249;SDS011;17064;47.974;13.826;2024-02-21T01:53:54;5.10;;;0.85;;
30249;SDS011;17064;47.974;13.826;2024-02-21T01:59:15;2.30;;;0.57;;
30249;SDS011;17064;47.974;13.826;2024-02-21T02:04:37;3.40;;;0.80;;
30249;SDS011;17064;47.974;13.826;2024-02-21T02:09:58;4.65;;;0.80;;
30249;SDS011;17064;47.974;13.826;2024-02-21T02:15:17;3.58;;;0.77;;
30249;SDS011;17064;47.974;13.826;2024-02-21T02:20:37;4.07;;;0.80;;
30249;SDS011;17064;47.974;13.826;2024-02-21T02:25:57;1.45;;;0.60;;
30249;SDS011;17064;47.974;13.826;2024-02-21T02:31:16;5.10;;;0.50;;
30249;SDS011;17064;47.974;13.826;2024-02-21T02:36:36;3.75;;;0.65;;
30249;SDS011;17064;47.974;13.826;2024-02-21T02:41:55;5.30;;;1.20;;
30249;SDS011;17064;47.974;13.826;2024-02-21T02:47:14;3.70;;;0.63;;
30249;SDS011;17064;47.974;13.826;2024-02-21T02:52:34;5.78;;;0.77;;
30249;SDS011;17064;47.974;13.826;2024-02-21T02:57:54;3.33;;;0.82;;
30249;SDS011;17064;47.974;13.826;2024-02-21T03:03:14;4.10;;;1.00;;
30249;SDS011;17064;47.974;13.826;2024-02-21T03:08:33;3.00;;;0.77;;
30249;SDS011;17064;47.974;13.826;2024-02-21T03:13:53;1.65;;;0.60;;
30249;SDS011;17064;47.974;13.826;2024-02-21T03:19:13;6.13;;;0.60;;
30249;SDS011;17064;47.974;13.826;2024-02-21T03:24:33;2.83;;;0.90;;
30249;SDS011;17064;47.974;13.826;2024-02-21T03:29:52;2.67;;;0.60;;
30249;SDS011;17064;47.974;13.826;2024-02-21T03:35:11;3.88;;;0.60;;
30249;SDS011;17064;47.974;13.826;2024-02-21T03:40:30;4.18;;;0.60;;
30249;SDS011;17064;47.974;13.826;2024-02-21T03:45:50;6.60;;;0.77;;
30249;SDS011;17064;47.974;13.826;2024-02-21T03:51:09;3.58;;;0.90;;
30249;SDS011;17064;47.974;13.826;2024-02-21T03:56:28;5.43;;;1.08;;
30249;SDS011;17064;47.974;13.826;2024-02-21T04:01:47;3.50;;;0.70;;
30249;SDS011;17064;47.974;13.826;2024-02-21T04:12:30;3.75;;;0.68;;
30249;SDS011;17064;47.974;13.826;2024-02-21T04:17:50;4.18;;;0.70;;
30249;SDS011;17064;47.974;13.826;2024-02-21T04:23:09;2.95;;;0.80;;
30249;SDS011;17064;47.974;13.826;2024-02-21T04:28:29;3.90;;;0.70;;
30249;SDS011;17064;47.974;13.826;2024-02-21T04:33:48;3.55;;;0.90;;
30249;SDS011;17064;47.974;13.826;2024-02-21T04:39:07;9.43;;;1.50;;
30249;SDS011;17064;47.974;13.826;2024-02-21T04:44:26;1.85;;;0.60;;
30249;SDS011;17064;47.974;13.826;2024-02-21T04:49:46;4.53;;;0.70;;
30249;SDS011;17064;47.974;13.826;2024-02-21T04:55:05;4.47;;;1.02;;
30249;SDS011;17064;47.974;13.826;2024-02-21T05:00:25;4.97;;;1.00;;
30249;SDS011;17064;47.974;13.826;2024-02-21T05:05:45;3.58;;;1.02;;
30249;SDS011;17064;47.974;13.826;2024-02-21T05:11:04;15.45;;;1.02;;
30249;SDS011;17064;47.974;13.826;2024-02-21T05:16:23;2.97;;;0.60;;
30249;SDS011;17064;47.974;13.826;2024-02-21T05:21:43;3.17;;;0.82;;
30249;SDS011;17064;47.974;13.826;2024-02-21T05:27:02;2.40;;;0.88;;
30249;SDS011;17064;47.974;13.826;2024-02-21T05:32:21;4.28;;;1.17;;
30249;SDS011;17064;47.974;13.826;2024-02-21T05:37:41;5.85;;;1.10;;
30249;SDS011;17064;47.974;13.826;2024-02-21T05:43:00;6.45;;;1.25;;
30249;SDS011;17064;47.974;13.826;2024-02-21T05:48:21;1.25;;;0.65;;
30249;SDS011;17064;47.974;13.826;2024-02-21T05:53:41;2.95;;;1.10;;
30249;SDS011;17064;47.974;13.826;2024-02-21T05:59:00;7.53;;;1.20;;
30249;SDS011;17064;47.974;13.826;2024-02-21T06:04:19;7.10;;;1.10;;
30249;SDS011;17064;47.974;13.826;2024-02-21T06:09:39;3.80;;;0.90;;
30249;SDS011;17064;47.974;13.826;2024-02-21T06:14:58;4.97;;;1.27;;
30249;SDS011;17064;47.974;13.826;2024-02-21T06:20:17;5.63;;;1.38;;
30249;SDS011;17064;47.974;13.826;2024-02-21T06:25:36;3.78;;;1.33;;
30249;SDS011;17064;47.974;13.826;2024-02-21T06:30:55;8.00;;;1.40;;
30249;SDS011;17064;47.974;13.826;2024-02-21T06:36:14;4.70;;;1.48;;
30249;SDS011;17064;47.974;13.826;2024-02-21T06:41:33;6.55;;;1.30;;
30249;SDS011;17064;47.974;13.826;2024-02-21T06:46:53;6.03;;;1.05;;
30249;SDS011;17064;47.974;13.826;2024-02-21T06:52:13;3.15;;;0.93;;
30249;SDS011;17064;47.974;13.826;2024-02-21T06:57:35;8.90;;;1.38;;
30249;SDS011;17064;47.974;13.826;2024-02-21T07:02:54;4.38;;;1.13;;
30249;SDS011;17064;47.974;13.826;2024-02-21T07:08:14;2.10;;;0.80;;
30249;SDS011;17064;47.974;13.826;2024-02-21T07:13:33;4.45;;;1.42;;
30249;SDS011;17064;47.974;13.826;2024-02-21T07:18:52;2.20;;;1.02;;
30249;SDS011;17064;47.974;13.826;2024-02-21T07:24:11;4.78;;;0.80;;
30249;SDS011;17064;47.974;13.826;2024-02-21T07:29:30;5.03;;;0.80;;
30249;SDS011;17064;47.974;13.826;2024-02-21T07:34:50;1.48;;;0.85;;
30249;SDS011;17064;47.974;13.826;2024-02-21T07:40:15;5.47;;;1.25;;
30249;SDS011;17064;47.974;13.826;2024-02-21T07:45:35;2.80;;;0.80;;
30249;SDS011;17064;47.974;13.826;2024-02-21T07:50:55;3.55;;;0.90;;
30249;SDS011;17064;47.974;13.826;2024-02-21T07:56:14;6.22;;;1.02;;
30249;SDS011;17064;47.974;13.826;2024-02-21T08:01:34;6.65;;;0.90;;
30249;SDS011;17064;47.974;13.826;2024-02-21T08:06:53;4.85;;;0.60;;
30249;SDS011;17064;47.974;13.826;2024-02-21T08:12:19;3.58;;;0.98;;
30249;SDS011;17064;47.974;13.826;2024-02-21T08:17:39;1.50;;;0.55;;
30249;SDS011;17064;47.974;13.826;2024-02-21T08:22:58;2.08;;;0.60;;
30249;SDS011;17064;47.974;13.826;2024-02-21T08:28:17;4.38;;;1.00;;
30249;SDS011;17064;47.974;13.826;2024-02-21T08:33:36;5.95;;;0.88;;
30249;SDS011;17064;47.974;13.826;2024-02-21T08:38:55;2.20;;;0.52;;
30249;SDS011;17064;47.974;13.826;2024-02-21T08:44:15;7.00;;;0.95;;
30249;SDS011;17064;47.974;13.826;2024-02-21T08:49:34;1.83;;;0.80;;
30249;SDS011;17064;47.974;13.826;2024-02-21T08:54:53;4.28;;;1.00;;
30249;SDS011;17064;47.974;13.826;2024-02-21T09:00:13;3.03;;;0.52;;
30249;SDS011;17064;47.974;13.826;2024-02-21T09:05:33;2.42;;;0.50;;
30249;SDS011;17064;47.974;13.826;2024-02-21T09:10:53;0.80;;;0.40;;
30249;SDS011;17064;47.974;13.826;2024-02-21T09:16:13;2.92;;;0.65;;
30249;SDS011;17064;47.974;13.826;2024-02-21T09:21:32;8.57;;;1.15;;
30249;SDS011;17064;47.974;13.826;2024-02-21T09:26:51;5.38;;;0.68;;
30249;SDS011;17064;47.974;13.826;2024-02-21T09:32:10;7.88;;;1.13;;
30249;SDS011;17064;47.974;13.826;2024-02-21T09:37:31;2.40;;;0.60;;
30249;SDS011;17064;47.974;13.826;2024-02-21T09:42:50;3.90;;;0.70;;
30249;SDS011;17064;47.974;13.826;2024-02-21T09:54:13;1.58;;;0.60;;
30249;SDS011;17064;47.974;13.826;2024-02-21T09:59:33;3.05;;;0.80;;
30249;SDS011;17064;47.974;13.826;2024-02-21T10:04:52;3.00;;;0.35;;
30249;SDS011;17064;47.974;13.826;2024-02-21T10:10:12;3.25;;;0.60;;
30249;SDS011;17064;47.974;13.826;2024-02-21T10:15:33;5.47;;;0.60;;
30249;SDS011;17064;47.974;13.826;2024-02-21T10:21:05;2.95;;;1.15;;
30249;SDS011;17064;47.974;13.826;2024-02-21T10:26:26;1.80;;;0.80;;
30249;SDS011;17064;47.974;13.826;2024-02-21T10:31:45;4.55;;;0.90;;
30249;SDS011;17064;47.974;13.826;2024-02-21T10:37:05;2.33;;;0.65;;
30249;SDS011;17064;47.974;13.826;2024-02-21T10:42:28;2.45;;;0.60;;
30249;SDS011;17064;47.974;13.826;2024-02-21T10:47:53;3.88;;;1.00;;
30249;SDS011;17064;47.974;13.826;2024-02-21T10:59:05;1.80;;;0.80;;
30249;SDS011;17064;47.974;13.826;2024-02-21T11:04:26;2.05;;;0.90;;
30249;SDS011;17064;47.974;13.826;2024-02-21T11:09:52;4.47;;;0.93;;
30249;SDS011;17064;47.974;13.826;2024-02-21T11:15:13;1.88;;;0.70;;
30249;SDS011;17064;47.974;13.826;2024-02-21T11:20:34;9.35;;;0.80;;
30249;SDS011;17064;47.974;13.826;2024-02-21T11:26:07;1.48;;;0.57;;
30249;SDS011;17064;47.974;13.826;2024-02-21T11:31:27;2.03;;;0.75;;
30249;SDS011;17064;47.974;13.826;2024-02-21T11:36:58;4.57;;;0.70;;
30249;SDS011;17064;47.974;13.826;2024-02-21T11:42:17;3.47;;;0.70;;
30249;SDS011;17064;47.974;13.826;2024-02-21T11:47:36;1.90;;;0.47;;
30249;SDS011;17064;47.974;13.826;2024-02-21T11:58:19;3.53;;;0.80;;
30249;SDS011;17064;47.974;13.826;2024-02-21T12:03:38;1.02;;;0.52;;
30249;SDS011;17064;47.974;13.826;2024-02-21T12:08:59;2.47;;;0.70;;
30249;SDS011;17064;47.974;13.826;2024-02-21T12:14:20;3.88;;;0.65;;
30249;SDS011;17064;47.974;13.826;2024-02-21T12:19:39;2.80;;;0.95;;
30249;SDS011;17064;47.974;13.826;2024-02-21T12:24:58;3.90;;;0.70;;
30249;SDS011;17064;47.974;13.826;2024-02-21T12:30:17;5.00;;;0.90;;
30249;SDS011;17064;47.974;13.826;2024-02-21T12:35:41;1.98;;;0.50;;
30249;SDS011;17064;47.974;13.826;2024-02-21T12:41:01;2.40;;;0.73;;
30249;SDS011;17064;47.974;13.826;2024-02-21T12:46:20;0.57;;;0.40;;
30249;SDS011;17064;47.974;13.826;2024-02-21T12:51:39;0.75;;;0.30;;
30249;SDS011;17064;47.974;13.826;2024-02-21T12:57:01;3.38;;;0.50;;
30249;SDS011;17064;47.974;13.826;2024-02-21T13:02:21;0.73;;;0.30;;
30249;SDS011;17064;47.974;13.826;2024-02-21T13:07:40;2.30;;;0.50;;
30249;SDS011;17064;47.974;13.826;2024-02-21T13:13:00;2.40;;;0.75;;
30249;SDS011;17064;47.974;13.826;2024-02-21T13:18:20;0.63;;;0.22;;
30249;SDS011;17064;47.974;13.826;2024-02-21T13:23:40;0.80;;;0.28;;
30249;SDS011;17064;47.974;13.826;2024-02-21T13:28:59;1.85;;;0.45;;
30249;SDS011;17064;47.974;13.826;2024-02-21T13:34:18;0.52;;;0.40;;
30249;SDS011;17064;47.974;13.826;2024-02-21T13:39:37;0.57;;;0.15;;
30249;SDS011;17064;47.974;13.826;2024-02-21T13:45:15;0.63;;;0.20;;
30249;SDS011;17064;47.974;13.826;2024-02-21T13:50:35;1.08;;;0.50;;
30249;SDS011;17064;47.974;13.826;2024-02-21T13:56:01;2.92;;;0.55;;
30249;SDS011;17064;47.974;13.826;2024-02-21T14:01:20;0.77;;;0.35;;
30249;SDS011;17064;47.974;13.826;2024-02-21T14:06:39;1.08;;;0.50;;
30249;SDS011;17064;47.974;13.826;2024-02-21T14:12:02;3.37;;;0.90;;
30249;SDS011;17064;47.974;13.826;2024-02-21T14:17:21;1.40;;;0.40;;
30249;SDS011;17064;47.974;13.826;2024-02-21T14:22:40;9.95;;;0.80;;
30249;SDS011;17064;47.974;13.826;2024-02-21T14:28:00;2.22;;;0.55;;
30249;SDS011;17064;47.974;13.826;2024-02-21T14:33:19;3.85;;;1.30;;
30249;SDS011;17064;47.974;13.826;2024-02-21T14:38:38;6.55;;;0.77;;
30249;SDS011;17064;47.974;13.826;2024-02-21T14:43:57;2.67;;;0.88;;
30249;SDS011;17064;47.974;13.826;2024-02-21T14:49:18;6.35;;;0.55;;
30249;SDS011;17064;47.974;13.826;2024-02-21T14:54:38;1.13;;;0.55;;
30249;SDS011;17064;47.974;13.826;2024-02-21T15:00:00;1.52;;;0.40;;
30249;SDS011;17064;47.974;13.826;2024-02-21T15:05:19;2.28;;;1.30;;
30249;SDS011;17064;47.974;13.826;2024-02-21T15:10:38;0.90;;;0.50;;
30249;SDS011;17064;47.974;13.826;2024-02-21T15:15:58;2.83;;;0.73;;
30249;SDS011;17064;47.974;13.826;2024-02-21T15:21:17;1.20;;;0.80;;
30249;SDS011;17064;47.974;13.826;2024-02-21T15:26:37;6.45;;;0.80;;
30249;SDS011;17064;47.974;13.826;2024-02-21T15:31:57;6.13;;;0.90;;
30249;SDS011;17064;47.974;13.826;2024-02-21T15:37:16;7.13;;;0.80;;
30249;SDS011;17064;47.974;13.826;2024-02-21T15:42:35;1.55;;;0.50;;
30249;SDS011;17064;47.974;13.826;2024-02-21T15:47:55;8.32;;;0.73;;
30249;SDS011;17064;47.974;13.826;2024-02-21T15:53:14;7.82;;;0.95;;
30249;SDS011;17064;47.974;13.826;2024-02-21T15:58:33;11.63;;;0.77;;
30249;SDS011;17064;47.974;13.826;2024-02-21T16:03:52;7.00;;;0.75;;
30249;SDS011;17064;47.974;13.826;2024-02-21T16:09:14;2.83;;;0.75;;
30249;SDS011;17064;47.974;13.826;2024-02-21T16:14:34;2.83;;;0.73;;
30249;SDS011;17064;47.974;13.826;2024-02-21T16:19:57;0.82;;;0.50;;
30249;SDS011;17064;47.974;13.826;2024-02-21T16:25:16;3.38;;;0.60;;
30249;SDS011;17064;47.974;13.826;2024-02-21T16:30:36;8.65;;;1.00;;
30249;SDS011;17064;47.974;13.826;2024-02-21T16:35:56;5.22;;;0.98;;
30249;SDS011;17064;47.974;13.826;2024-02-21T16:41:15;2.47;;;1.10;;
30249;SDS011;17064;47.974;13.826;2024-02-21T16:46:34;1.00;;;0.65;;
30249;SDS011;17064;47.974;13.826;2024-02-21T16:51:54;1.50;;;0.60;;
30249;SDS011;17064;47.974;13.826;2024-02-21T16:57:13;1.27;;;0.57;;
30249;SDS011;17064;47.974;13.826;2024-02-21T17:02:32;2.33;;;0.80;;
30249;SDS011;17064;47.974;13.826;2024-02-21T17:07:51;2.55;;;1.35;;
30249;SDS011;17064;47.974;13.826;2024-02-21T17:13:10;3.47;;;2.03;;
30249;SDS011;17064;47.974;13.826;2024-02-21T17:18:30;5.20;;;1.30;;
30249;SDS011;17064;47.974;13.826;2024-02-21T17:23:49;4.57;;;1.20;;
30249;SDS011;17064;47.974;13.826;2024-02-21T17:29:08;4.30;;;2.10;;
30249;SDS011;17064;47.974;13.826;2024-02-21T17:34:28;5.22;;;2.20;;
30249;SDS011;17064;47.974;13.826;2024-02-21T17:39:47;7.13;;;1.67;;
30249;SDS011;17064;47.974;13.826;2024-02-21T17:45:08;5.35;;;1.40;;
30249;SDS011;17064;47.974;13.826;2024-02-21T17:50:27;3.22;;;1.48;;
30249;SDS011;17064;47.974;13.826;2024-02-21T17:55:47;9.70;;;1.83;;
30249;SDS011;17064;47.974;13.826;2024-02-21T18:01:06;4.40;;;1.45;;
30249;SDS011;17064;47.974;13.826;2024-02-21T18:06:25;5.32;;;1.40;;
30249;SDS011;17064;47.974;13.826;2024-02-21T18:11:45;2.60;;;1.10;;
30249;SDS011;17064;47.974;13.826;2024-02-21T18:17:04;7.80;;;2.40;;
30249;SDS011;17064;47.974;13.826;2024-02-21T18:22:23;11.10;;;3.75;;
30249;SDS011;17064;47.974;13.826;2024-02-21T18:27:43;13.35;;;4.40;;
30249;SDS011;17064;47.974;13.826;2024-02-21T18:33:03;11.85;;;4.43;;
30249;SDS011;17064;47.974;13.826;2024-02-21T18:38:22;12.90;;;5.32;;
30249;SDS011;17064;47.974;13.826;2024-02-21T18:43:42;8.82;;;3.75;;
30249;SDS011;17064;47.974;13.826;2024-02-21T18:49:02;11.98;;;3.97;;
30249;SDS011;17064;47.974;13.826;2024-02-21T18:54:23;8.13;;;3.33;;
30249;SDS011;17064;47.974;13.826;2024-02-21T18:59:43;7.22;;;3.50;;
30249;SDS011;17064;47.974;13.826;2024-02-21T19:05:02;9.38;;;3.47;;
30249;SDS011;17064;47.974;13.826;2024-02-21T19:10:22;7.85;;;2.90;;
30249;SDS011;17064;47.974;13.826;2024-02-21T19:15:42;7.85;;;3.03;;
30249;SDS011;17064;47.974;13.826;2024-02-21T19:21:02;5.60;;;2.67;;
30249;SDS011;17064;47.974;13.826;2024-02-21T19:26:21;4.00;;;2.25;;
30249;SDS011;17064;47.974;13.826;2024-02-21T19:31:40;5.47;;;2.10;;
30249;SDS011;17064;47.974;13.826;2024-02-21T19:37:00;4.32;;;2.05;;
30249;SDS011;17064;47.974;13.826;2024-02-21T19:42:20;4.45;;;2.13;;
30249;SDS011;17064;47.974;13.826;2024-02-21T19:47:40;3.88;;;2.20;;
30249;SDS011;17064;47.974;13.826;2024-02-21T19:53:02;8.18;;;2.90;;
30249;SDS011;17064;47.974;13.826;2024-02-21T19:58:22;6.70;;;2.50;;
30249;SDS011;17064;47.974;13.826;2024-02-21T20:03:42;8.13;;;2.85;;
30249;SDS011;17064;47.974;13.826;2024-02-21T20:09:03;5.88;;;2.60;;
30249;SDS011;17064;47.974;13.826;2024-02-21T20:14:25;5.03;;;2.55;;
30249;SDS011;17064;47.974;13.826;2024-02-21T20:19:45;5.40;;;2.30;;
30249;SDS011;17064;47.974;13.826;2024-02-21T20:25:05;7.10;;;2.35;;
30249;SDS011;17064;47.974;13.826;2024-02-21T20:30:24;3.95;;;2.30;;
30249;SDS011;17064;47.974;13.826;2024-02-21T20:35:44;3.90;;;2.00;;
30249;SDS011;17064;47.974;13.826;2024-02-21T20:41:03;3.83;;;1.70;;
30249;SDS011;17064;47.974;13.826;2024-02-21T20:46:22;5.10;;;2.10;;
30249;SDS011;17064;47.974;13.826;2024-02-21T20:51:42;5.55;;;1.60;;
30249;SDS011;17064;47.974;13.826;2024-02-21T20:57:03;3.53;;;1.63;;
30249;SDS011;17064;47.974;13.826;2024-02-21T21:02:22;4.53;;;2.20;;
30249;SDS011;17064;47.974;13.826;2024-02-21T21:07:42;3.00;;;1.65;;
30249;SDS011;17064;47.974;13.826;2024-02-21T21:13:02;7.13;;;1.73;;
30249;SDS011;17064;47.974;13.826;2024-02-21T21:18:22;7.80;;;3.42;;
30249;SDS011;17064;47.974;13.826;2024-02-21T21:23:44;9.27;;;3.08;;
30249;SDS011;17064;47.974;13.826;2024-02-21T21:29:04;5.80;;;2.35;;
30249;SDS011;17064;47.974;13.826;2024-02-21T21:34:23;4.45;;;1.98;;
30249;SDS011;17064;47.974;13.826;2024-02-21T21:39:43;5.28;;;1.63;;
30249;SDS011;17064;47.974;13.826;2024-02-21T21:45:08;4.22;;;1.67;;
30249;SDS011;17064;47.974;13.826;2024-02-21T21:50:28;5.93;;;2.10;;
30249;SDS011;17064;47.974;13.826;2024-02-21T21:55:47;3.70;;;1.80;;
30249;SDS011;17064;47.974;13.826;2024-02-21T22:01:11;4.75;;;1.67;;
30249;SDS011;17064;47.974;13.826;2024-02-21T22:06:32;4.05;;;1.60;;
30249;SDS011;17064;47.974;13.826;2024-02-21T22:11:51;1.90;;;1.15;;
30249;SDS011;17064;47.974;13.826;2024-02-21T22:17:10;2.78;;;1.65;;
30249;SDS011;17064;47.974;13.826;2024-02-21T22:22:30;3.15;;;1.50;;
30249;SDS011;17064;47.974;13.826;2024-02-21T22:27:49;3.35;;;1.50;;
30249;SDS011;17064;47.974;13.826;2024-02-21T22:33:09;4.72;;;2.20;;
30249;SDS011;17064;47.974;13.826;2024-02-21T22:38:31;5.88;;;2.15;;
30249;SDS011;17064;47.974;13.826;2024-02-21T22:43:51;4.10;;;1.52;;
30249;SDS011;17064;47.974;13.826;2024-02-21T22:49:11;3.45;;;1.50;;
30249;SDS011;17064;47.974;13.826;2024-02-21T22:54:31;4.63;;;1.88;;
30249;SDS011;17064;47.974;13.826;2024-02-21T22:59:51;3.92;;;1.52;;
30249;SDS011;17064;47.974;13.826;2024-02-21T23:05:10;12.18;;;4.30;;
30249;SDS011;17064;47.974;13.826;2024-02-21T23:10:30;7.00;;;3.60;;
30249;SDS011;17064;47.974;13.826;2024-02-21T23:15:49;7.78;;;2.78;;
30249;SDS011;17064;47.974;13.826;2024-02-21T23:21:09;7.55;;;3.30;;
30249;SDS011;17064;47.974;13.826;2024-02-21T23:26:30;10.48;;;4.00;;
30249;SDS011;17064;47.974;13.826;2024-02-21T23:31:49;11.95;;;4.68;;
30249;SDS011;17064;47.974;13.826;2024-02-21T23:37:09;14.80;;;5.78;;
30249;SDS011;17064;47.974;13.826;2024-02-21T23:42:29;15.13;;;5.47;;
30249;SDS011;17064;47.974;13.826;2024-02-21T23:47:49;10.05;;;4.15;;
30249;SDS011;17064;47.974;13.826;2024-02-21T23:53:09;16.20;;;5.05;;
30249;SDS011;17064;47.974;13.826;2024-02-21T23:58:28;10.55;;;5.22;;
